Wednesday, August 15, 2018, 4:45 AM EDT
Back to Local

KPSM, Pease Air Force Base / Portsmouth

Location: Portsmouth, NH, United States Lat: 43.083
Local Time: 4:45 AM EDT ( 8:45 GMT) Lon: -70.817
Time Zone: US/Eastern Elev: 101 ft

Show me the last for .
Show Decoded

2018-08-15 03:56 METAR KPSM 150756Z 00000KT 3SM BR OVC003 21/20 A2979 RMK AO2A VIS W 3/4 SLP089
                 T02080203 =
2018-08-15 02:56 METAR KPSM 150656Z 00000KT 3SM BR OVC004 21/21 A2980 RMK AO2A SLP093 T02090205 =
2018-08-15 01:56 METAR KPSM 150556Z 00000KT 2SM BR OVC002 21/21 A2981 RMK AO2A SLP096 60000
                 T02100205 10212 20203 58003 =
2018-08-15 00:56 METAR KPSM 150456Z 00000KT 2SM BR OVC002 21/20 A2982 RMK AO2A SLP101 T02070204
                 402630190 =
2018-08-15 00:32 METAR KPSM 150432Z 00000KT 1 1/2SM BR OVC002 21/20 A2982 RMK AO2A =
2018-08-14 23:56 METAR KPSM 150356Z 29003KT 2 1/2SM BR OVC002 21/21 A2982 RMK AO2A SLP101
                 T02090205 =
2018-08-14 23:15 METAR KPSM 150315Z 31004KT 4SM BR OVC003 21/20 A2983 RMK AO2A =
2018-08-14 22:56 METAR KPSM 150256Z 00000KT 10SM OVC005 21/20 A2982 RMK AO2A SLP100 60000
                 T02080203 58003 =
2018-08-14 21:56 METAR KPSM 150156Z 00000KT 8SM OVC005 21/20 A2982 RMK AO2A SLP100 T02110202 =
2018-08-14 21:35 METAR KPSM 150135Z 00000KT 8SM OVC006 21/20 A2983 RMK AO2A =
2018-08-14 20:56 METAR KPSM 150056Z 00000KT 7SM VCSH OVC008 21/20 A2983 RMK AO2A RAB30E54 SLP103
                 P0000 T02090200 =
2018-08-14 20:31 METAR KPSM 150031Z 25003KT 8SM -RA BKN008 BKN150 21/20 A2983 RMK AO2A =
2018-08-14 20:24 METAR KPSM 150024Z 25004KT 8SM BKN008 BKN150 20/20 A2983 RMK AO2A =
2018-08-14 19:56 METAR KPSM 142356Z 00000KT 10SM FEW020 SCT150 20/20 A2983 RMK AO2A SLP103 60011
                 T02040196 10263 20204 55008 =
2018-08-14 18:56 METAR KPSM 142256Z 09003KT 10SM FEW005 FEW020 SCT200 21/20 A2982 RMK AO2A SLP100
                 T02110196 =
2018-08-14 17:56 METAR KPSM 142156Z 07004KT 10SM FEW007 FEW030 SCT200 22/20 A2983 RMK AO2A RAE20
                 SLP103 P0002 T02230200 =
2018-08-14 17:20 METAR KPSM 142120Z COR 03003KT 10SM FEW007 SCT030 BKN200 22/20 A2983 RMK AO2A
                 RAE20 COR 2124 =
2018-08-14 16:56 METAR KPSM 142056Z 00000KT 4SM -RA BR SCT007 OVC030 21/20 A2986 RMK AO2A RAB38
                 SLP113 P0009 60009 T02120198 55004 =
2018-08-14 16:38 METAR KPSM 142038Z 27005KT 10SM -RA SCT007 OVC030 22/19 A2986 RMK AO2A RAB38 VIS
                 S 2 =
2018-08-14 16:06 METAR KPSM 142006Z VRB04KT 10SM BKN007 OVC035 24/22 A2985 RMK AO2A =
2018-08-14 15:56 METAR KPSM 141956Z 14008KT 10SM FEW007 BKN030 BKN100 BKN200 24/22 A2985 RMK AO2A
                 LTG DSNT N AND SW SLP110 T02410216 =
2018-08-14 14:56 METAR KPSM 141856Z 11008KT 10SM FEW005 FEW020 SCT100 BKN200 26/22 A2986 RMK AO2A
                 LTG DSNT W SLP113 T02550218 =
2018-08-14 13:56 METAR KPSM 141756Z 09006KT 10SM SCT015 BKN100 BKN200 26/22 A2987 RMK AO2A SLP117
                 T02610221 10261 20199 57014 =
2018-08-14 12:56 METAR KPSM 141656Z 00000KT 10SM BKN015 BKN035 BKN200 25/22 A2989 RMK AO2A SLP123
                 T02540219 =
2018-08-14 12:24 METAR KPSM 141624Z 00000KT 10SM BKN012 BKN200 25/22 A2989 RMK AO2A =
2018-08-14 11:56 METAR KPSM 141556Z 00000KT 10SM SCT008 BKN030 BKN200 24/22 A2989 RMK AO2A SLP123
                 T02400219 =
2018-08-14 11:29 METAR KPSM 141529Z 00000KT 7SM BKN006 23/22 A2991 RMK AO2A =
2018-08-14 10:56 METAR KPSM 141456Z 00000KT 4SM BR OVC004 22/21 A2991 RMK AO2A SLP130 T02230214
                 58002 =
2018-08-14 09:56 METAR KPSM 141356Z 00000KT 2SM BR OVC002 21/21 A2991 RMK AO2A SLP130 T02130213 =
2018-08-14 09:42 METAR KPSM 141342Z 00000KT 5/8SM R34/P6000FT BR OVC001 21/21 A2991 RMK AO2A =
2018-08-14 09:22 METAR KPSM 141322Z 00000KT 1 1/4SM BR OVC002 21/21 A2991 RMK AO2A =
2018-08-14 09:10 METAR KPSM 141310Z 00000KT 1/2SM R34/3000VP6000FT FG VV002 21/21 A2991 RMK AO2A
                 =
2018-08-14 08:56 METAR KPSM 141256Z 00000KT 1/4SM R34/2600V2800FT FG VV002 20/20 A2992 RMK AO2A
                 SLP134 T02030203 =
2018-08-14 07:56 METAR KPSM 141156Z 07003KT 1/4SM R34/2000V2200FT FG VV002 20/20 A2991 RMK AO2A
                 SLP130 60027 70029 T01990199 10199 20191 50004 =
2018-08-14 07:15 METAR KPSM 141115Z 03004KT 1/4SM R34/3500V4500FT FG OVC001 20/20 A2992 RMK AO2A
                 =
2018-08-14 06:56 METAR KPSM 141056Z 00000KT 3/4SM R34/P6000FT BR OVC002 20/19 A2992 RMK AO2A
                 SLP134 T01950193 =
2018-08-14 06:38 METAR KPSM 141038Z 00000KT 1 1/2SM BR OVC002 20/19 A2991 RMK AO2A =
2018-08-14 05:56 METAR KPSM 140956Z 03004KT 2SM BR OVC002 20/19 A2991 RMK AO2A SLP130 T01950193 =
2018-08-14 04:56 METAR KPSM 140856Z 04006KT 5SM BR OVC003 19/19 A2990 RMK AO2A DZE54 SLP127 P0000
                 60027 T01940194 57013 =

Support USWX by starting your Amazon purchase here.